Time;durP1;ratioP1;P1;durP2;ratioP2;P2;SDS_P1;SDS_P2;PMS_P1;PMS_P2;Temp;Humidity;BMP_temperature;BMP_pressure;BME280_temperature;BME280_humidity;BME280_pressure;Samples;Min_cycle;Max_cycle;Signal;HPM_P1;HPM_P2
2021/12/18 00:01:22;;;;;;;;;48.50;37.00;;;;;5.25;94.30;102707.69;5060450;28;45581;-66
2021/12/18 00:03:47;;;;;;;;;45.50;36.00;;;;;5.22;94.25;102699.81;5058508;28;45260;-64
2021/12/18 00:06:14;;;;;;;;;44.50;35.00;;;;;5.22;94.36;102694.59;5060130;28;45398;-68
2021/12/18 00:08:40;;;;;;;;;43.00;37.00;;;;;5.24;94.41;102705.94;5060316;28;45422;-62
2021/12/18 00:11:06;;;;;;;;;40.75;35.00;;;;;5.17;94.27;102686.72;5059783;28;46274;-66
2021/12/18 00:13:32;;;;;;;;;40.00;35.50;;;;;5.20;94.01;102696.28;5063873;28;45441;-62
2021/12/18 00:15:58;;;;;;;;;44.50;36.00;;;;;5.20;94.57;102699.81;5061887;28;45292;-63
2021/12/18 00:18:24;;;;;;;;;41.25;34.75;;;;;5.19;93.84;102691.94;5060300;28;45434;-62
2021/12/18 00:20:49;;;;;;;;;54.25;44.75;;;;;5.16;94.54;102694.50;5059141;28;46075;-65
2021/12/18 00:23:15;;;;;;;;;43.00;35.75;;;;;5.12;94.21;102683.16;5059290;28;45250;-61
2021/12/18 00:25:41;;;;;;;;;41.50;36.00;;;;;5.08;94.08;102683.94;5040745;28;45340;-65
2021/12/18 00:28:07;;;;;;;;;38.50;33.50;;;;;5.12;94.24;102691.84;5059100;28;45225;-61
2021/12/18 00:30:33;;;;;;;;;39.50;34.00;;;;;5.05;93.55;102674.31;5059106;28;45379;-67
2021/12/18 00:32:59;;;;;;;;;43.75;35.00;;;;;5.09;93.86;102680.47;5060336;28;45351;-66
2021/12/18 00:35:24;;;;;;;;;39.75;30.50;;;;;5.07;93.69;102685.66;5064570;28;45461;-68
2021/12/18 00:37:50;;;;;;;;;44.50;32.75;;;;;5.09;93.75;102697.00;5059480;28;45325;-67
2021/12/18 00:40:23;;;;;;;;;45.00;33.50;;;;;5.08;93.89;102683.94;5058808;28;46047;-67
2021/12/18 00:43:26;;;;;;;;;40.25;33.50;;;;;5.08;94.11;102691.78;5059267;28;45390;-67
2021/12/18 00:45:40;;;;;;;;;34.50;30.75;;;;;5.05;93.85;102687.38;5055187;28;45526;-66
2021/12/18 00:48:06;;;;;;;;;45.50;36.25;;;;;5.00;93.27;102672.50;5061735;28;45312;-69
2021/12/18 00:50:32;;;;;;;;;42.00;33.50;;;;;5.02;94.05;102682.09;5059680;28;45348;-64
2021/12/18 00:52:57;;;;;;;;;34.00;27.25;;;;;5.03;93.98;102672.56;5059062;28;45232;-67
2021/12/18 00:55:22;;;;;;;;;42.25;33.50;;;;;5.03;93.31;102677.78;5058867;28;45305;-67
2021/12/18 00:57:50;;;;;;;;;33.75;32.50;;;;;5.02;93.67;102681.25;5058877;28;45288;-63
2021/12/18 01:00:22;;;;;;;;;35.25;31.00;;;;;5.00;93.71;102669.91;5057885;28;45797;-69
2021/12/18 01:02:49;;;;;;;;;37.50;36.00;;;;;4.99;93.35;102671.63;5058090;28;45301;-67
2021/12/18 01:05:16;;;;;;;;;42.75;33.25;;;;;4.96;93.65;102676.78;5058505;28;45394;-66
2021/12/18 01:07:41;;;;;;;;;37.75;33.00;;;;;4.92;92.99;102673.25;5058564;28;45912;-64
2021/12/18 01:12:53;;;;;;;;;38.25;33.25;;;;;4.86;93.47;102673.16;5058931;28;45259;-69
2021/12/18 01:15:31;;;;;;;;;43.50;35.25;;;;;4.87;93.47;102680.13;5058451;28;45192;-68
2021/12/18 01:23:39;;;;;;;;;40.50;35.75;;;;;4.78;93.58;102691.25;5058210;28;45427;-67
2021/12/18 01:26:04;;;;;;;;;40.25;34.75;;;;;4.73;93.82;102681.59;5058618;28;45426;-68
2021/12/18 01:28:31;;;;;;;;;37.75;32.25;;;;;4.72;93.47;102678.13;5057583;28;45306;-69
2021/12/18 01:30:56;;;;;;;;;35.75;31.75;;;;;4.71;93.38;102672.84;5058717;28;45336;-69
2021/12/18 01:33:22;;;;;;;;;35.75;33.50;;;;;4.70;93.54;102682.41;5059110;28;45362;-67
2021/12/18 01:35:48;;;;;;;;;40.50;31.75;;;;;4.66;93.72;102681.47;5041540;28;46217;-66
2021/12/18 01:38:15;;;;;;;;;31.00;23.75;;;;;4.64;93.17;102691.00;5059397;28;45241;-68
2021/12/18 01:40:41;;;;;;;;;34.25;30.00;;;;;4.60;93.35;102688.31;5057284;28;45411;-68
2021/12/18 01:43:58;;;;;;;;;31.50;28.75;;;;;4.58;93.57;102679.59;5061176;28;45255;-67
2021/12/18 01:46:43;;;;;;;;;32.75;28.75;;;;;4.60;93.58;102694.41;5061603;28;45347;-61
2021/12/18 01:54:00;;;;;;;;;34.00;30.75;;;;;4.55;93.63;102695.19;5058709;28;45447;-63
2021/12/18 01:56:27;;;;;;;;;32.00;28.50;;;;;4.54;93.59;102702.09;5060327;28;45335;-67
2021/12/18 01:58:54;;;;;;;;;37.25;31.00;;;;;4.52;93.69;102691.66;5061502;28;45454;-64
2021/12/18 02:01:21;;;;;;;;;41.00;29.00;;;;;4.50;93.67;102687.25;5059266;28;46504;-64
2021/12/18 02:03:47;;;;;;;;;37.25;32.25;;;;;4.43;93.15;102680.16;5057454;28;45367;-65
2021/12/18 02:06:12;;;;;;;;;40.00;36.25;;;;;4.48;93.52;102692.44;5057845;28;45350;-68
2021/12/18 02:08:39;;;;;;;;;36.00;33.00;;;;;4.46;93.78;102683.72;5058887;28;45245;-69
2021/12/18 02:21:43;;;;;;;;;31.50;25.00;;;;;4.36;93.64;102694.81;5034262;28;46009;-67
2021/12/18 02:24:08;;;;;;;;;33.75;30.25;;;;;4.33;93.72;102699.97;5057814;28;45186;-67
2021/12/18 02:26:34;;;;;;;;;25.75;25.00;;;;;4.27;94.06;102686.81;5057986;28;45359;-60
2021/12/18 02:29:02;;;;;;;;;27.50;19.75;;;;;4.32;93.70;102691.25;5058650;28;45367;-63
2021/12/18 02:31:28;;;;;;;;;36.00;32.25;;;;;4.32;93.36;102690.41;5060504;28;46673;-66
2021/12/18 02:33:54;;;;;;;;;42.00;35.75;;;;;4.31;93.66;102686.91;5058892;28;45390;-63
2021/12/18 02:36:23;;;;;;;;;33.50;32.25;;;;;4.32;93.69;102686.06;5059847;28;45169;-59
2021/12/18 02:41:35;;;;;;;;;38.00;31.25;;;;;4.30;93.69;102681.69;5057750;28;45339;-68
2021/12/18 02:44:11;;;;;;;;;37.50;32.75;;;;;4.28;93.50;102686.84;5057021;28;45415;-67
2021/12/18 02:46:37;;;;;;;;;47.50;35.75;;;;;4.28;94.13;102685.97;5059108;28;45363;-62
2021/12/18 02:49:08;;;;;;;;;32.50;30.00;;;;;4.24;94.14;102678.09;5057661;28;45501;-70
2021/12/18 02:51:33;;;;;;;;;44.25;34.00;;;;;4.24;93.83;102678.09;5058541;28;46208;-67
2021/12/18 02:53:59;;;;;;;;;41.50;36.75;;;;;4.17;94.35;102678.78;5062754;28;45317;-67
2021/12/18 02:56:24;;;;;;;;;43.00;35.50;;;;;4.22;94.41;102682.38;5061038;28;45209;-61
2021/12/18 02:58:58;;;;;;;;;40.50;34.75;;;;;4.22;93.68;102679.75;5062977;28;45505;-64
2021/12/18 03:01:25;;;;;;;;;42.75;37.25;;;;;4.21;93.55;102679.75;5065054;28;46173;-64
2021/12/18 03:03:53;;;;;;;;;43.00;37.50;;;;;4.23;93.94;102681.53;5063020;28;45270;-64
2021/12/18 03:06:41;;;;;;;;;45.00;36.25;;;;;4.16;93.91;102671.81;5061729;28;45370;-68
2021/12/18 03:22:50;;;;;;;;;46.75;36.25;;;;;4.46;93.34;102686.34;5059372;28;45266;-62
2021/12/18 03:25:18;;;;;;;;;36.50;32.50;;;;;4.55;93.05;102687.34;5059630;28;45436;-65
2021/12/18 03:27:45;;;;;;;;;45.75;34.50;;;;;4.59;92.97;102686.56;5060172;28;45483;-65
2021/12/18 03:30:11;;;;;;;;;42.50;34.75;;;;;4.51;92.97;102668.16;5061705;28;45572;-66
2021/12/18 03:32:36;;;;;;;;;37.75;28.25;;;;;4.58;93.33;102679.59;5064839;28;45453;-67
2021/12/18 03:35:04;;;;;;;;;39.00;34.00;;;;;4.60;93.57;102688.31;5064286;28;45378;-66
2021/12/18 03:37:29;;;;;;;;;40.75;34.50;;;;;4.57;93.08;102670.88;5061433;28;45332;-66
2021/12/18 03:39:54;;;;;;;;;41.25;35.25;;;;;4.56;93.44;102678.69;5061186;28;45229;-56
2021/12/18 03:42:20;;;;;;;;;44.50;36.25;;;;;4.62;93.73;102684.88;5059411;28;46128;-65
2021/12/18 03:44:45;;;;;;;;;38.25;31.50;;;;;4.67;93.81;102677.16;5059540;28;45239;-62
2021/12/18 03:47:11;;;;;;;;;46.50;36.25;;;;;4.69;93.99;102667.63;5041697;28;45263;-57
2021/12/18 03:49:36;;;;;;;;;41.00;33.25;;;;;4.72;93.95;102661.56;5063827;28;45244;-62
2021/12/18 03:52:03;;;;;;;;;46.75;35.00;;;;;4.77;93.94;102666.03;5064507;28;46426;-62
2021/12/18 03:54:28;;;;;;;;;43.50;36.50;;;;;4.82;93.58;102668.75;5064926;28;45453;-66
2021/12/18 03:56:54;;;;;;;;;42.50;33.25;;;;;4.79;93.79;102646.09;5064185;28;45482;-63
2021/12/18 03:59:20;;;;;;;;;36.75;32.25;;;;;4.93;94.04;102661.09;5064315;28;45423;-61
2021/12/18 04:01:46;;;;;;;;;32.00;28.00;;;;;4.98;93.71;102659.44;5064009;28;45635;-65
2021/12/18 04:04:11;;;;;;;;;30.25;29.25;;;;;5.05;93.24;102658.69;5059996;28;45363;-61
2021/12/18 04:06:38;;;;;;;;;47.50;35.25;;;;;5.10;93.39;102670.06;5059399;28;45387;-60
2021/12/18 04:09:04;;;;;;;;;35.50;28.00;;;;;5.12;93.76;102664.88;5060088;28;45513;-62
2021/12/18 04:11:29;;;;;;;;;43.00;34.50;;;;;5.16;93.34;102657.97;5057867;28;45327;-66
2021/12/18 04:13:55;;;;;;;;;39.50;32.25;;;;;5.16;92.91;102661.47;5059254;28;45469;-64
2021/12/18 04:16:21;;;;;;;;;42.00;34.50;;;;;5.12;92.92;102657.06;5060274;28;45259;-66
2021/12/18 04:18:46;;;;;;;;;43.75;33.25;;;;;5.14;93.04;102665.78;5060621;28;45552;-65
2021/12/18 04:21:12;;;;;;;;;44.25;35.75;;;;;5.16;93.04;102666.69;5061337;28;46079;-65
2021/12/18 04:23:37;;;;;;;;;46.00;35.75;;;;;5.20;93.29;102657.16;5063191;28;45216;-61
2021/12/18 04:26:03;;;;;;;;;38.50;33.50;;;;;5.28;92.96;102668.59;5063427;28;45219;-67
2021/12/18 04:28:28;;;;;;;;;44.25;35.75;;;;;5.32;93.06;102662.59;5059494;28;45514;-66
2021/12/18 04:30:54;;;;;;;;;39.75;33.25;;;;;5.36;93.26;102658.28;5059247;28;45279;-68
2021/12/18 04:33:19;;;;;;;;;38.00;34.25;;;;;5.33;92.66;102664.34;5058671;28;45477;-68
2021/12/18 04:35:45;;;;;;;;;40.25;35.50;;;;;5.33;92.94;102656.53;5059375;28;45282;-66
2021/12/18 04:38:10;;;;;;;;;48.75;36.00;;;;;5.31;92.05;102660.84;5059279;28;45316;-68
2021/12/18 04:40:36;;;;;;;;;46.50;34.25;;;;;5.36;92.72;102660.91;5059427;28;45356;-67
2021/12/18 04:43:03;;;;;;;;;44.33;37.00;;;;;5.43;92.70;102667.09;5060875;28;45365;-70
2021/12/18 04:45:29;;;;;;;;;45.25;35.50;;;;;5.40;92.63;102654.88;5063364;28;45323;-69
2021/12/18 04:47:55;;;;;;;;;42.00;34.00;;;;;5.49;92.43;102668.06;5061284;28;45500;-68
2021/12/18 04:50:22;;;;;;;;;38.50;33.50;;;;;5.52;92.57;102677.69;5060668;28;45249;-68
2021/12/18 04:52:47;;;;;;;;;38.75;34.75;;;;;5.53;92.03;102680.28;5058388;28;45354;-68
2021/12/18 04:55:13;;;;;;;;;28.75;28.75;;;;;5.53;92.03;102675.06;5058177;28;45355;-60
2021/12/18 04:57:38;;;;;;;;;30.75;28.75;;;;;5.54;91.88;102673.34;5059217;28;45243;-68
2021/12/18 05:00:07;;;;;;;;;45.50;34.50;;;;;5.59;91.59;102674.28;5059412;28;46044;-70
2021/12/18 05:02:41;;;;;;;;;39.25;33.50;;;;;5.52;92.01;102660.25;5057504;28;45287;-69
2021/12/18 05:05:09;;;;;;;;;47.75;34.25;;;;;5.63;91.99;102677.81;5057968;28;45317;-66
2021/12/18 05:07:34;;;;;;;;;40.75;35.00;;;;;5.61;91.46;102674.31;5058358;28;45308;-69
2021/12/18 05:10:01;;;;;;;;;41.00;32.50;;;;;5.63;91.63;102681.31;5060678;28;46133;-68
2021/12/18 05:12:26;;;;;;;;;39.00;34.25;;;;;5.65;91.24;102682.22;5061408;28;45273;-66
2021/12/18 05:14:52;;;;;;;;;38.50;33.25;;;;;5.66;91.21;102681.34;5058181;28;45283;-66
2021/12/18 05:17:17;;;;;;;;;40.50;35.00;;;;;5.68;91.35;102684.88;5058326;28;45592;-69
2021/12/18 05:19:43;;;;;;;;;44.00;35.50;;;;;5.70;91.16;102677.03;5058554;28;45252;-69
2021/12/18 05:22:08;;;;;;;;;42.00;34.25;;;;;5.70;90.91;102684.88;5057864;28;45374;-69
2021/12/18 05:24:34;;;;;;;;;39.50;34.25;;;;;5.69;90.79;102689.25;5057461;28;45434;-66
2021/12/18 05:26:59;;;;;;;;;38.50;33.00;;;;;5.70;90.95;102688.38;5039583;28;45300;-61
2021/12/18 05:29:25;;;;;;;;;43.25;34.50;;;;;5.76;91.06;102681.50;5057211;28;46314;-68
2021/12/18 05:31:50;;;;;;;;;44.00;36.25;;;;;5.77;89.82;102684.09;5057610;28;45313;-69
2021/12/18 05:34:22;;;;;;;;;35.00;32.25;;;;;5.82;89.86;102689.41;5060310;28;45342;-70
2021/12/18 05:39:22;;;;;;;;;42.75;33.00;;;;;5.87;90.35;102685.13;5057571;28;45500;-67
2021/12/18 05:41:50;;;;;;;;;40.75;34.75;;;;;5.87;90.40;102686.88;5057523;28;45280;-68
2021/12/18 05:44:17;;;;;;;;;39.50;31.25;;;;;5.88;90.32;102686.88;5057515;28;45449;-58
2021/12/18 05:46:43;;;;;;;;;29.50;29.50;;;;;5.86;89.20;102683.38;5057874;28;45319;-63
2021/12/18 05:49:08;;;;;;;;;39.75;32.00;;;;;5.87;90.38;102687.72;5057462;28;46434;-62
2021/12/18 05:51:34;;;;;;;;;35.25;31.00;;;;;5.92;90.04;102688.66;5056551;28;45353;-62
2021/12/18 05:54:00;;;;;;;;;35.00;29.75;;;;;5.96;89.96;102684.38;5038424;28;45248;-61
2021/12/18 05:56:25;;;;;;;;;36.75;30.75;;;;;5.93;89.51;102679.13;5057851;28;45244;-61
2021/12/18 05:58:50;;;;;;;;;33.00;27.50;;;;;5.93;89.12;102684.34;5060893;28;46419;-60
2021/12/18 06:01:18;;;;;;;;;39.25;31.50;;;;;5.86;88.60;102678.13;5056945;28;45732;-61
2021/12/18 06:03:44;;;;;;;;;32.25;30.50;;;;;5.80;88.87;102678.91;5056755;28;45530;-67
2021/12/18 06:06:09;;;;;;;;;36.75;30.75;;;;;5.78;88.78;102672.81;5057758;28;45558;-69
2021/12/18 06:08:36;;;;;;;;;43.00;33.75;;;;;5.74;89.37;102663.16;5057203;28;46065;-68
2021/12/18 06:11:07;;;;;;;;;36.50;32.25;;;;;5.81;89.82;102669.38;5056800;28;45417;-74
2021/12/18 06:13:33;;;;;;;;;40.25;28.25;;;;;5.77;89.50;102675.41;5056907;28;45382;-74
2021/12/18 06:15:59;;;;;;;;;36.00;29.00;;;;;5.78;90.04;102677.16;5057307;28;45205;-74
2021/12/18 06:18:24;;;;;;;;;38.50;32.75;;;;;5.74;89.51;102662.31;5065029;28;45403;-75
2021/12/18 06:20:49;;;;;;;;;41.00;31.50;;;;;5.69;89.31;102670.97;5059665;28;45363;-74
2021/12/18 06:23:15;;;;;;;;;39.00;33.00;;;;;5.61;89.42;102663.84;5056953;28;45354;-73
2021/12/18 06:25:40;;;;;;;;;43.00;33.00;;;;;5.53;89.24;102663.78;5056519;28;45645;-72
2021/12/18 06:28:05;;;;;;;;;41.00;32.50;;;;;5.40;89.61;102665.31;5056574;28;46152;-70
2021/12/18 06:30:31;;;;;;;;;41.25;33.25;;;;;5.36;89.86;102667.00;5056685;28;45426;-74
2021/12/18 06:32:56;;;;;;;;;32.75;28.00;;;;;5.22;90.25;102652.84;5056468;28;45429;-77
2021/12/18 06:35:21;;;;;;;;;44.00;33.50;;;;;5.26;90.59;102671.19;5055988;28;45472;-71
2021/12/18 06:37:47;;;;;;;;;39.50;31.25;;;;;5.15;90.73;102669.25;5056745;28;45461;-68
2021/12/18 06:40:12;;;;;;;;;37.25;28.25;;;;;5.20;91.24;102675.44;5055575;28;45392;-66
2021/12/18 06:42:39;;;;;;;;;41.00;35.75;;;;;5.14;90.86;102676.22;5057829;28;45492;-68
2021/12/18 06:45:04;;;;;;;;;43.00;35.00;;;;;5.10;91.78;102677.03;5063211;28;45279;-72
2021/12/18 06:47:30;;;;;;;;;42.00;33.00;;;;;5.07;91.74;102677.84;5059346;28;47145;-68
2021/12/18 06:49:55;;;;;;;;;47.00;39.25;;;;;5.04;91.79;102684.75;5057022;28;45377;-64
2021/12/18 06:52:21;;;;;;;;;55.00;38.50;;;;;4.95;91.89;102670.69;5055930;28;45359;-73
2021/12/18 06:54:46;;;;;;;;;43.25;35.00;;;;;4.98;92.18;102680.28;5055895;28;45610;-71
2021/12/18 06:57:11;;;;;;;;;45.25;36.00;;;;;4.96;91.96;102682.00;5055173;28;46016;-74
2021/12/18 06:59:37;;;;;;;;;45.00;37.50;;;;;4.91;92.60;102683.66;5055418;28;45375;-69
2021/12/18 07:02:02;;;;;;;;;48.25;36.25;;;;;4.89;92.23;102683.63;5055668;28;45383;-74
2021/12/18 07:04:28;;;;;;;;;47.50;37.00;;;;;4.88;92.41;102675.78;5055781;28;45173;-73
2021/12/18 07:06:54;;;;;;;;;43.75;33.75;;;;;4.85;92.17;102678.31;5055981;28;45386;-74
2021/12/18 07:09:20;;;;;;;;;47.00;36.00;;;;;4.74;92.12;102671.19;5056611;28;45377;-62
2021/12/18 07:11:45;;;;;;;;;39.25;33.00;;;;;4.74;92.30;102681.63;5058796;28;45374;-71
2021/12/18 07:14:12;;;;;;;;;47.50;37.50;;;;;4.76;92.72;102689.47;5056312;28;45385;-77
2021/12/18 07:16:38;;;;;;;;;46.00;35.75;;;;;4.71;92.75;102680.69;5055862;28;46638;-71
2021/12/18 07:19:03;;;;;;;;;44.75;35.00;;;;;4.71;92.86;102693.72;5058802;28;45396;-71
2021/12/18 07:21:29;;;;;;;;;42.25;33.00;;;;;4.66;92.84;102688.44;5056279;28;45304;-76
2021/12/18 07:23:54;;;;;;;;;41.00;35.00;;;;;4.65;93.37;102686.69;5055977;28;45635;-75
2021/12/18 07:26:20;;;;;;;;;39.00;34.00;;;;;4.66;92.97;102688.44;5055097;28;45955;-70
2021/12/18 07:28:45;;;;;;;;;45.50;33.50;;;;;4.65;92.87;102694.50;5055970;28;45424;-65
2021/12/18 07:31:10;;;;;;;;;45.50;35.75;;;;;4.64;92.55;102701.41;5060005;28;45353;-63
2021/12/18 07:33:37;;;;;;;;;41.75;35.75;;;;;4.63;92.71;102697.06;5056621;28;45547;-61
2021/12/18 07:36:06;;;;;;;;;30.50;26.50;;;;;4.60;92.76;102698.75;5055096;28;47216;-70
2021/12/18 07:38:31;;;;;;;;;42.00;33.00;;;;;4.60;93.14;102710.03;5054860;28;45471;-70
2021/12/18 07:40:57;;;;;;;;;33.50;32.50;;;;;4.62;92.74;102708.34;5055056;28;45323;-63
2021/12/18 07:43:22;;;;;;;;;38.25;30.00;;;;;4.61;93.04;102697.91;5054988;28;45466;-61
2021/12/18 07:45:47;;;;;;;;;41.25;33.25;;;;;4.61;92.48;102698.75;5057310;28;46188;-65
2021/12/18 07:48:13;;;;;;;;;38.50;33.75;;;;;4.60;92.91;102697.00;5061638;28;45339;-73
2021/12/18 07:50:38;;;;;;;;;42.75;34.25;;;;;4.64;92.67;102713.59;5060094;28;45316;-69
2021/12/18 07:53:03;;;;;;;;;41.75;31.00;;;;;4.60;93.00;102706.56;5059715;28;45335;-74
2021/12/18 07:55:29;;;;;;;;;37.75;34.50;;;;;4.61;92.45;102714.41;5058485;28;46102;-68
2021/12/18 07:57:55;;;;;;;;;36.75;30.25;;;;;4.57;92.57;102704.75;5058785;28;45166;-70
2021/12/18 08:00:21;;;;;;;;;40.50;33.25;;;;;4.57;92.90;102702.16;5059295;28;45387;-69
2021/12/18 08:02:46;;;;;;;;;38.75;32.00;;;;;4.55;92.64;102696.03;5058352;28;45292;-67
2021/12/18 08:05:12;;;;;;;;;45.75;36.50;;;;;4.57;92.85;102703.91;5059209;28;46421;-70
2021/12/18 08:07:38;;;;;;;;;41.50;33.50;;;;;4.57;92.68;102693.47;5060349;28;45303;-68
2021/12/18 08:10:04;;;;;;;;;37.75;31.00;;;;;4.52;92.22;102691.66;5059684;28;45241;-71
2021/12/18 08:12:30;;;;;;;;;36.00;32.50;;;;;4.58;92.58;102700.44;5059394;28;45297;-70
2021/12/18 08:14:56;;;;;;;;;30.50;30.50;;;;;4.58;92.59;102698.69;5059419;28;45267;-72
2021/12/18 08:17:22;;;;;;;;;41.75;32.50;;;;;4.59;92.26;102697.84;5063215;28;45383;-66
2021/12/18 08:19:48;;;;;;;;;40.75;33.00;;;;;4.61;92.27;102703.97;5059625;28;45303;-70
2021/12/18 08:22:13;;;;;;;;;42.25;34.25;;;;;4.62;92.20;102704.88;5058640;28;45602;-70
2021/12/18 08:24:38;;;;;;;;;39.25;36.00;;;;;4.60;92.29;102704.81;5060117;28;45411;-68
2021/12/18 08:27:04;;;;;;;;;49.50;39.75;;;;;4.64;92.25;102704.03;5058998;28;45351;-64
2021/12/18 08:29:29;;;;;;;;;38.00;33.75;;;;;4.65;92.07;102711.00;5057881;28;45368;-77
2021/12/18 08:31:54;;;;;;;;;40.50;34.00;;;;;4.65;92.09;102702.31;5059911;28;45542;-68
2021/12/18 08:34:21;;;;;;;;;44.25;34.00;;;;;4.68;92.33;102716.28;5058249;28;45414;-67
2021/12/18 08:36:47;;;;;;;;;42.50;35.75;;;;;4.67;91.90;102711.03;5057756;28;45409;-65
2021/12/18 08:39:13;;;;;;;;;46.50;35.75;;;;;4.71;91.78;102711.97;5057296;28;45442;-71
2021/12/18 08:41:42;;;;;;;;;45.75;32.00;;;;;4.70;91.81;102710.22;5057967;28;45315;-66
2021/12/18 08:44:07;;;;;;;;;37.50;32.00;;;;;4.67;91.67;102717.13;5056980;28;46229;-70
2021/12/18 08:46:34;;;;;;;;;42.00;36.50;;;;;4.70;91.77;102716.31;5058294;28;45400;-69
2021/12/18 08:48:59;;;;;;;;;43.75;35.25;;;;;4.69;91.59;102711.94;5057618;28;45256;-67
2021/12/18 08:51:25;;;;;;;;;41.50;34.25;;;;;4.70;91.53;102716.31;5057348;28;45561;-63
2021/12/18 08:53:50;;;;;;;;;46.25;35.25;;;;;4.65;91.82;102704.94;5057798;28;45367;-59
2021/12/18 08:56:15;;;;;;;;;43.50;32.75;;;;;4.71;91.49;102714.56;5057762;28;45327;-65
2021/12/18 08:58:41;;;;;;;;;46.00;35.25;;;;;4.70;91.53;102718.03;5056991;28;45763;-70
2021/12/18 09:01:06;;;;;;;;;42.00;35.50;;;;;4.70;91.82;102718.91;5058161;28;45511;-74
2021/12/18 09:03:31;;;;;;;;;37.50;28.25;;;;;4.73;91.52;102712.88;5058018;28;46037;-70
2021/12/18 09:05:57;;;;;;;;;39.25;35.00;;;;;4.75;91.51;102714.66;5058215;28;45335;-62
2021/12/18 09:08:22;;;;;;;;;38.50;32.50;;;;;4.74;91.23;102707.69;5057497;28;45345;-60
2021/12/18 09:10:49;;;;;;;;;30.25;25.00;;;;;4.76;90.87;102710.31;5059522;28;45339;-62
2021/12/18 09:13:14;;;;;;;;;41.00;35.50;;;;;4.74;91.52;102712.03;5057376;28;45630;-66
2021/12/18 09:15:40;;;;;;;;;39.00;34.25;;;;;4.76;91.30;102711.22;5056512;28;45335;-62
2021/12/18 09:18:05;;;;;;;;;39.25;33.75;;;;;4.83;91.67;102707.88;5056292;28;45446;-69
2021/12/18 09:20:31;;;;;;;;;42.50;35.25;;;;;4.87;91.15;102707.91;5056758;28;45264;-66
2021/12/18 09:22:59;;;;;;;;;44.50;35.75;;;;;4.86;91.00;102704.44;5056859;28;46180;-63
2021/12/18 09:25:26;;;;;;;;;39.75;33.50;;;;;4.86;90.91;102695.72;5056927;28;45263;-64
2021/12/18 09:27:52;;;;;;;;;38.75;33.75;;;;;4.85;91.07;102694.88;5055747;28;45504;-58
2021/12/18 09:30:17;;;;;;;;;39.25;34.00;;;;;4.90;90.84;102695.81;5056765;28;45632;-64
2021/12/18 09:32:43;;;;;;;;;42.25;34.25;;;;;4.92;90.86;102695.84;5056869;28;45404;-69
2021/12/18 09:35:10;;;;;;;;;46.00;36.75;;;;;4.95;90.73;102688.97;5056335;28;45319;-65
2021/12/18 09:37:36;;;;;;;;;34.75;30.50;;;;;4.97;90.54;102692.47;5056470;28;45350;-72
2021/12/18 09:40:01;;;;;;;;;42.00;33.50;;;;;4.92;90.53;102680.19;5039519;28;45430;-62
2021/12/18 09:42:27;;;;;;;;;42.75;35.50;;;;;4.95;90.23;102685.47;5057268;28;45391;-68
2021/12/18 09:44:52;;;;;;;;;40.25;33.00;;;;;4.98;90.37;102688.13;5056819;28;45403;-65
2021/12/18 09:47:19;;;;;;;;;45.50;36.00;;;;;4.96;90.57;102688.09;5057043;28;45286;-63
2021/12/18 09:49:46;;;;;;;;;50.00;36.00;;;;;5.01;90.70;102689.91;5041489;28;45234;-73
2021/12/18 09:52:11;;;;;;;;;37.75;29.50;;;;;5.08;90.57;102703.06;5057992;28;46288;-71
2021/12/18 09:54:37;;;;;;;;;32.00;29.25;;;;;5.12;90.56;102693.59;5058133;28;45398;-71
2021/12/18 09:57:02;;;;;;;;;52.25;39.50;;;;;5.10;90.34;102679.63;5061053;28;45304;-67
2021/12/18 09:59:28;;;;;;;;;36.50;31.50;;;;;5.21;89.44;102688.50;5063955;28;45594;-60
2021/12/18 10:01:53;;;;;;;;;40.50;35.25;;;;;5.26;90.31;102686.84;5057705;28;45417;-66
2021/12/18 10:04:31;;;;;;;;;36.50;32.50;;;;;5.38;89.58;102690.50;5056788;28;45182;-65
2021/12/18 10:06:59;;;;;;;;;35.75;33.00;;;;;5.43;89.73;102690.59;5056820;28;45345;-64
2021/12/18 10:09:24;;;;;;;;;39.50;33.25;;;;;5.50;89.64;102685.47;5057238;28;45233;-68
2021/12/18 10:11:54;;;;;;;;;40.75;34.00;;;;;5.53;89.10;102684.66;5055939;28;46255;-71
2021/12/18 10:14:33;;;;;;;;;38.00;32.00;;;;;5.60;88.22;102683.00;5056013;28;45383;-68
2021/12/18 10:16:58;;;;;;;;;32.75;27.50;;;;;5.63;87.28;102680.44;5056608;28;45410;-66
2021/12/18 10:19:36;;;;;;;;;41.00;34.75;;;;;5.63;88.05;102673.47;5057935;28;45340;-66
2021/12/18 10:22:05;;;;;;;;;51.75;36.75;;;;;5.72;87.99;102675.31;5057853;28;45633;-68
2021/12/18 10:24:36;;;;;;;;;43.50;35.25;;;;;5.79;87.99;102674.56;5057987;28;45394;-69
2021/12/18 10:27:15;;;;;;;;;39.00;33.00;;;;;5.83;86.90;102683.31;5056973;28;45272;-67
2021/12/18 10:29:41;;;;;;;;;41.50;34.00;;;;;5.87;87.17;102664.22;5056767;28;45395;-70
2021/12/18 10:32:18;;;;;;;;;42.75;35.50;;;;;5.95;87.56;102672.16;5054725;28;46532;-66
2021/12/18 10:34:58;;;;;;;;;39.75;31.75;;;;;5.99;85.78;102664.38;5039037;28;45287;-67
2021/12/18 10:37:31;;;;;;;;;43.00;36.00;;;;;6.04;86.22;102655.75;5056371;28;45196;-65
2021/12/18 10:40:11;;;;;;;;;43.50;35.75;;;;;6.11;85.50;102663.69;5055935;28;45403;-63
2021/12/18 10:42:42;;;;;;;;;35.00;30.50;;;;;6.19;85.50;102663.78;5051253;28;46109;-73
2021/12/18 10:45:20;;;;;;;;;35.75;31.75;;;;;6.28;85.46;102660.41;5048409;28;45703;-68
2021/12/18 10:47:57;;;;;;;;;36.00;30.25;;;;;6.37;85.53;102659.63;5051982;28;45449;-68
2021/12/18 10:50:25;;;;;;;;;41.25;34.25;;;;;6.43;84.86;102654.47;5041851;28;45534;-64
2021/12/18 10:53:07;;;;;;;;;40.50;35.00;;;;;6.52;84.85;102651.94;5056779;28;45425;-61
2021/12/18 10:55:35;;;;;;;;;36.00;32.00;;;;;6.60;84.32;102656.38;5037424;28;45457;-63
2021/12/18 10:58:02;;;;;;;;;38.00;32.00;;;;;6.65;84.25;102652.94;5055091;28;45421;-63
2021/12/18 11:00:36;;;;;;;;;42.50;35.50;;;;;6.70;83.82;102642.53;5043850;28;45575;-68
2021/12/18 11:03:17;;;;;;;;;39.25;33.25;;;;;6.74;82.68;102644.31;5020228;28;47382;-68
2021/12/18 11:05:43;;;;;;;;;43.25;34.25;;;;;6.73;82.75;102645.16;5034632;28;45369;-65
2021/12/18 11:08:10;;;;;;;;;46.00;34.75;;;;;6.77;82.49;102638.22;5036042;28;45443;-66
2021/12/18 11:10:43;;;;;;;;;42.75;35.25;;;;;6.84;83.03;102633.06;5041479;28;45305;-68
2021/12/18 11:15:55;;;;;;;;;43.25;36.50;;;;;6.95;82.18;102627.94;5035830;28;45456;-71
2021/12/18 11:18:21;;;;;;;;;52.50;39.00;;;;;7.00;81.12;102631.47;5036650;28;45321;-64
2021/12/18 11:20:49;;;;;;;;;40.75;35.25;;;;;7.02;82.44;102626.22;5058386;28;45544;-64
2021/12/18 11:23:20;;;;;;;;;38.75;32.00;;;;;7.07;79.79;102631.50;5042290;28;47171;-65
2021/12/18 11:25:46;;;;;;;;;40.75;34.00;;;;;7.10;79.77;102640.22;5059156;28;45287;-65
2021/12/18 11:28:14;;;;;;;;;37.50;32.00;;;;;7.13;80.14;102636.78;5059875;28;45358;-62
2021/12/18 11:30:39;;;;;;;;;43.00;32.75;;;;;7.16;80.70;102642.91;5059795;28;45485;-63
2021/12/18 11:33:05;;;;;;;;;42.25;34.50;;;;;7.23;80.38;102641.22;5060745;28;45360;-65
2021/12/18 11:35:31;;;;;;;;;35.00;29.25;;;;;7.27;79.67;102644.72;5060333;28;45533;-64
2021/12/18 11:38:03;;;;;;;;;40.25;34.50;;;;;7.31;80.71;102630.78;5059831;28;45481;-64
2021/12/18 11:40:34;;;;;;;;;38.25;31.00;;;;;7.40;80.23;102625.59;5061539;28;45259;-65
2021/12/18 11:43:00;;;;;;;;;34.25;31.25;;;;;7.47;79.86;102623.91;5060442;28;46455;-70
2021/12/18 11:45:34;;;;;;;;;39.75;34.25;;;;;7.50;79.38;102623.06;5039851;28;45426;-69
2021/12/18 11:48:00;;;;;;;;;41.50;35.00;;;;;7.54;78.64;102617.81;5042045;28;45353;-67
2021/12/18 11:50:31;;;;;;;;;36.75;33.50;;;;;7.61;79.56;102613.50;5047892;28;45194;-67
2021/12/18 11:53:00;;;;;;;;;44.25;34.00;;;;;7.69;79.96;102618.78;5060397;28;45449;-69
2021/12/18 11:55:31;;;;;;;;;35.00;31.75;;;;;7.73;79.14;102610.94;5060291;28;45338;-66
2021/12/18 11:58:00;;;;;;;;;70.50;54.50;;;;;7.76;79.36;102604.81;5059608;28;45412;-69
2021/12/18 12:00:45;;;;;;;;;60.00;47.25;;;;;7.89;79.12;102613.63;5062620;28;46071;-66
2021/12/18 12:03:13;;;;;;;;;49.50;38.50;;;;;7.91;79.12;102609.25;5061651;28;46962;-66